Main page
METAR-TAF:

METAR-TAF

Airports :

Chicago Rockford International Airport

Rockford, Illinois, United States

latitude: 42-11-34N, longitude: 089-05-36W, elevation: 735 ft

Current weather observation

The report was made 19 minutes ago, at 16:28 UTC
Wind 14 mph from the North
Temperature 41°F
Humidity 70%
Pressure 30.18 in. Hg
Visibility: 10 miles
Broken clouds at a height of 1600 ft

METAR: KRFD 041628Z 36012KT 10SM BKN016 05/00 A3018 RMK AO2 T00500000

Time: 11:47 (16:47 UTC)

Forecast

The report was made 2 hours and 3 minutes ago, at 14:44 UTC
Forecast valid from 04 at 15 UTC to 05 at 12 UTC
Wind 14 mph from the North
Visibility: 6 miles
Broken clouds at a height of 1200 ft
From 04 at 1630 UTC
Wind 12 mph from the North
Visibility: 6 miles
Scattered clouds at a height of 1500 ft
From 05 at 0100 UTC
Wind 3 mph from the North/Northeast
Visibility: 6 miles
Broken clouds at a height of 15000 ft

TAF: KRFD 041444Z 0415/0512 36012KT P6SM BKN012 FM041630 36010KT P6SM SCT015 FM050100 03003KT P6SM BKN150

Weather observations and forecasts of more than 4000 airports (METAR and TAF reports).

The available stations are represented by yellow and red dots on the map.

Hover mouse over dot to see the name of the station.

Then click to see weather observations and forecasts.

To change the map : click on the green buttons with a black cross to zoom in, on the green button with a dash to zoom out, or on the green arrows for adjacent maps.


METAR-TAF: